createdAt,value
2023-05-11T00:02:02.138Z,32.45
2023-05-11T00:04:29.128Z,31.52
2023-05-11T00:06:59.239Z,35.17
2023-05-11T00:09:26.723Z,34.75
2023-05-11T00:11:56.710Z,31.90
2023-05-11T00:14:23.746Z,25.58
2023-05-11T00:16:55.736Z,21.85
2023-05-11T00:19:22.456Z,19.17
2023-05-11T00:21:49.183Z,17.00
2023-05-11T00:24:16.253Z,13.93
2023-05-11T00:26:43.380Z,14.55
2023-05-11T00:29:18.954Z,14.73
2023-05-11T00:31:49.547Z,13.15
2023-05-11T00:34:19.338Z,14.32
2023-05-11T00:36:49.647Z,13.77
2023-05-11T00:39:22.704Z,14.13
2023-05-11T00:41:49.522Z,15.75
2023-05-11T00:44:18.635Z,16.27
2023-05-11T00:46:47.707Z,18.38
2023-05-11T00:49:21.622Z,15.73
2023-05-11T00:51:48.769Z,16.55
2023-05-11T00:54:16.251Z,17.80
2023-05-11T00:56:43.486Z,18.25
2023-05-11T00:59:19.276Z,21.05
2023-05-11T01:01:46.497Z,18.35
2023-05-11T01:04:19.289Z,21.33
2023-05-11T01:07:31.219Z,18.92
2023-05-11T01:10:42.359Z,18.30
2023-05-11T01:14:13.632Z,19.17
2023-05-11T01:16:49.453Z,20.58
2023-05-11T01:19:44.849Z,17.85
2023-05-11T01:23:19.031Z,19.73
2023-05-11T01:26:16.174Z,18.15
2023-05-11T01:29:19.651Z,21.52
2023-05-11T01:31:58.813Z,21.48
2023-05-11T01:34:36.164Z,20.77
2023-05-11T01:37:27.930Z,21.83
2023-05-11T01:40:20.966Z,19.33
2023-05-11T01:43:19.445Z,20.02
2023-05-11T01:45:56.859Z,20.75
2023-05-11T01:48:35.621Z,20.75
2023-05-11T01:51:09.736Z,23.67
2023-05-11T01:53:48.591Z,23.20
2023-05-11T01:56:19.950Z,27.88
2023-05-11T01:59:00.944Z,28.17
2023-05-11T02:01:30.634Z,26.55
2023-05-11T02:04:06.478Z,27.75
2023-05-11T02:06:38.357Z,26.55
2023-05-11T02:09:18.841Z,30.20
2023-05-11T02:11:49.472Z,25.48
2023-05-11T02:14:21.747Z,28.15
2023-05-11T02:16:51.896Z,24.02
2023-05-11T02:19:21.565Z,36.65
2023-05-11T02:21:57.358Z,27.40
2023-05-11T02:24:28.641Z,30.40
2023-05-11T02:27:08.038Z,27.58
2023-05-11T02:29:35.280Z,27.73
2023-05-11T02:32:22.725Z,30.92
2023-05-11T02:35:11.353Z,29.48
2023-05-11T02:37:47.252Z,29.27
2023-05-11T02:40:34.020Z,32.53
2023-05-11T02:43:11.776Z,32.40
2023-05-11T02:45:48.857Z,32.10
2023-05-11T02:48:30.642Z,30.30
2023-05-11T02:51:02.699Z,32.75
2023-05-11T02:53:35.041Z,25.42
2023-05-11T02:56:06.358Z,24.67
2023-05-11T02:58:33.738Z,29.80
2023-05-11T03:01:01.371Z,27.88
2023-05-11T03:03:28.993Z,24.75
2023-05-11T03:05:55.912Z,27.10
2023-05-11T03:08:22.740Z,26.70
2023-05-11T03:10:52.058Z,28.42
2023-05-11T03:13:26.776Z,27.70
2023-05-11T03:16:11.842Z,27.15
2023-05-11T03:18:43.239Z,26.20
2023-05-11T03:21:21.983Z,28.55
2023-05-11T03:24:00.590Z,29.23
2023-05-11T03:26:30.537Z,26.63
2023-05-11T03:29:07.030Z,27.27
2023-05-11T03:31:34.120Z,20.27
2023-05-11T03:34:06.360Z,20.10
2023-05-11T03:36:38.015Z,21.05
2023-05-11T03:39:14.475Z,22.25
2023-05-11T03:41:56.870Z,20.13
2023-05-11T03:44:37.723Z,22.08
2023-05-11T03:47:10.506Z,20.85
2023-05-11T03:52:25.713Z,23.17
2023-05-11T03:54:55.323Z,30.30
2023-05-11T03:57:29.394Z,29.73
2023-05-11T04:00:12.472Z,22.83
2023-05-11T04:02:46.582Z,21.92
2023-05-11T04:05:14.650Z,22.05
2023-05-11T04:07:44.875Z,24.63
2023-05-11T04:10:14.803Z,22.10
2023-05-11T04:12:42.824Z,24.00
2023-05-11T04:15:21.042Z,24.98
2023-05-11T04:17:48.263Z,24.58
2023-05-11T04:20:24.173Z,24.73
2023-05-11T04:22:51.149Z,21.17
2023-05-11T04:25:23.764Z,21.38
2023-05-11T04:27:57.498Z,27.15
2023-05-11T04:30:24.530Z,21.95
2023-05-11T04:33:02.748Z,21.70
2023-05-11T04:35:29.794Z,25.38
2023-05-11T04:37:57.945Z,24.15
2023-05-11T04:40:35.330Z,27.73
2023-05-11T04:43:02.319Z,26.73
2023-05-11T04:45:32.127Z,29.17
2023-05-11T04:56:15.514Z,27.88
2023-05-11T04:58:50.299Z,24.85
2023-05-11T05:06:50.899Z,28.52
2023-05-11T05:26:32.809Z,30.83
2023-05-11T05:48:49.248Z,50.45
2023-05-11T05:51:24.635Z,43.25
2023-05-11T05:54:01.781Z,40.58
2023-05-11T05:56:30.885Z,45.58
2023-05-11T05:59:03.653Z,50.67
2023-05-11T06:01:30.539Z,48.05
2023-05-11T06:04:02.919Z,35.30
2023-05-11T06:06:30.755Z,30.85
2023-05-11T06:09:00.546Z,36.75
2023-05-11T06:11:35.422Z,39.25
2023-05-11T06:14:03.239Z,41.65
2023-05-11T06:16:32.814Z,40.25
2023-05-11T06:18:59.896Z,36.90
2023-05-11T06:21:26.782Z,36.08
2023-05-11T06:23:56.505Z,37.55
2023-05-11T06:26:28.472Z,46.33
2023-05-11T06:28:58.251Z,44.55
2023-05-11T06:31:25.392Z,52.05
2023-05-11T06:33:58.851Z,42.95
2023-05-11T06:36:33.939Z,36.05
2023-05-11T06:39:09.152Z,36.42
2023-05-11T06:41:35.934Z,32.22
2023-05-11T06:44:02.858Z,31.15
2023-05-11T06:46:29.907Z,30.67
2023-05-11T06:49:00.931Z,32.08
2023-05-11T06:51:33.159Z,25.85
2023-05-11T06:54:03.305Z,24.65
2023-05-11T06:56:31.935Z,25.33
2023-05-11T06:59:01.113Z,22.85
2023-05-11T07:01:30.700Z,25.08
2023-05-11T07:04:18.617Z,25.17
2023-05-11T07:06:48.048Z,25.55
2023-05-11T07:09:15.519Z,29.13
2023-05-11T07:11:47.614Z,25.23
2023-05-11T07:14:18.764Z,23.40
2023-05-11T07:16:48.623Z,23.98
2023-05-11T07:19:16.085Z,23.05
2023-05-11T07:21:48.196Z,25.85
2023-05-11T07:24:18.194Z,27.92
2023-05-11T07:26:45.076Z,24.23
2023-05-11T07:29:27.965Z,22.70
2023-05-11T07:32:25.264Z,24.42
2023-05-11T07:34:56.574Z,24.25
2023-05-11T07:37:26.197Z,26.33
2023-05-11T07:39:56.891Z,28.27
2023-05-11T07:42:27.510Z,28.75
2023-05-11T07:45:00.296Z,26.40
2023-05-11T07:47:36.746Z,28.17
2023-05-11T07:50:17.025Z,25.48
2023-05-11T07:52:44.190Z,27.55
2023-05-11T07:55:13.404Z,27.23
2023-05-11T07:57:45.735Z,28.58
2023-05-11T08:00:16.699Z,23.58
2023-05-11T08:02:48.611Z,29.38
2023-05-11T08:05:19.896Z,27.08
2023-05-11T08:07:47.497Z,24.35
2023-05-11T08:10:14.642Z,27.40
2023-05-11T08:12:46.110Z,27.85
2023-05-11T08:15:24.721Z,28.65
2023-05-11T08:17:52.015Z,22.45
2023-05-11T08:20:19.207Z,23.58
2023-05-11T08:22:47.833Z,23.42
2023-05-11T08:25:22.690Z,27.35
2023-05-11T08:27:49.672Z,28.40
2023-05-11T08:30:25.125Z,24.83
2023-05-11T08:32:59.262Z,24.50
2023-05-11T08:35:33.726Z,25.52
2023-05-11T08:38:00.566Z,27.85
2023-05-11T08:40:31.445Z,26.70
2023-05-11T08:43:11.644Z,24.67
2023-05-11T08:45:48.024Z,27.48
2023-05-11T08:48:31.901Z,24.17
2023-05-11T08:51:00.031Z,23.67
2023-05-11T08:53:33.255Z,30.98
2023-05-11T08:56:02.086Z,28.07
2023-05-11T08:58:38.153Z,29.17
2023-05-11T09:01:12.508Z,27.55
2023-05-11T09:03:43.212Z,30.20
2023-05-11T09:06:28.865Z,27.75
2023-05-11T09:08:59.516Z,28.13
2023-05-11T09:11:30.895Z,28.50
2023-05-11T09:14:00.596Z,29.95
2023-05-11T09:16:36.858Z,30.30
2023-05-11T09:19:05.700Z,29.13
2023-05-11T09:21:33.286Z,29.13
2023-05-11T09:24:00.875Z,24.55
2023-05-11T09:26:34.180Z,27.73
2023-05-11T09:29:06.973Z,35.10
2023-05-11T09:31:56.535Z,27.85
2023-05-11T09:34:24.474Z,23.83
2023-05-11T09:37:00.153Z,20.65
2023-05-11T09:39:42.254Z,26.70
2023-05-11T09:42:34.042Z,28.05
2023-05-11T09:45:06.516Z,19.25
2023-05-11T09:47:42.362Z,22.90
2023-05-11T09:50:26.456Z,27.20
2023-05-11T09:53:06.776Z,19.85
2023-05-11T09:55:36.628Z,16.95
2023-05-11T09:58:13.929Z,16.17
2023-05-11T10:00:57.707Z,17.42
2023-05-11T10:03:29.695Z,16.50
2023-05-11T10:06:03.204Z,22.38
2023-05-11T10:08:34.632Z,21.83
2023-05-11T10:11:08.761Z,15.55
2023-05-11T10:16:13.223Z,16.42
2023-05-11T10:18:43.433Z,19.57
2023-05-11T10:21:22.289Z,18.77
2023-05-11T10:23:58.393Z,17.50
2023-05-11T10:26:46.134Z,21.92
2023-05-11T10:29:14.465Z,24.90
2023-05-11T11:07:24.873Z,52.08
2023-05-11T11:09:57.959Z,35.72
2023-05-11T11:12:30.186Z,24.90
2023-05-11T11:15:16.376Z,30.73
2023-05-11T11:18:36.160Z,20.80
2023-05-11T11:21:09.006Z,19.90
2023-05-11T11:23:50.610Z,23.20
2023-05-11T11:26:55.495Z,26.45
2023-05-11T11:29:22.942Z,26.05
2023-05-11T11:31:49.983Z,32.70
2023-05-11T11:34:31.117Z,31.13
2023-05-11T11:37:09.869Z,45.33
2023-05-11T11:39:51.997Z,39.33
2023-05-11T11:42:34.936Z,31.10
2023-05-11T11:45:34.746Z,34.38
2023-05-11T11:48:28.314Z,41.13
2023-05-11T11:51:14.470Z,36.43
2023-05-11T11:53:50.591Z,36.25
2023-05-11T11:56:23.981Z,42.60
2023-05-11T11:58:50.761Z,30.10
2023-05-11T12:01:40.083Z,27.33
2023-05-11T12:04:39.281Z,24.85
2023-05-11T12:07:22.047Z,21.15
2023-05-11T12:09:51.861Z,21.30
2023-05-11T12:12:28.840Z,21.50
2023-05-11T12:15:40.957Z,32.47
2023-05-11T12:18:22.379Z,29.85
2023-05-11T12:20:52.647Z,35.42
2023-05-11T12:23:19.674Z,45.28
2023-05-11T12:26:26.904Z,43.90
2023-05-11T12:29:18.498Z,34.58
2023-05-11T12:31:47.291Z,26.92
2023-05-11T12:34:24.562Z,26.98
2023-05-11T12:36:58.953Z,27.88
2023-05-11T12:39:33.119Z,21.50
2023-05-11T12:42:09.300Z,21.07
2023-05-11T12:44:40.731Z,18.80
2023-05-11T12:47:10.836Z,18.98
2023-05-11T12:49:37.908Z,20.98
2023-05-11T12:52:10.303Z,21.33
2023-05-11T12:54:51.707Z,20.85
2023-05-11T12:57:33.781Z,20.25
2023-05-11T13:00:19.977Z,23.30
2023-05-11T13:03:00.376Z,23.08
2023-05-11T13:05:29.453Z,22.38
2023-05-11T13:08:11.425Z,22.73
2023-05-11T13:10:38.279Z,30.42
2023-05-11T13:13:07.746Z,21.60
2023-05-11T13:15:54.150Z,22.88
2023-05-11T13:19:27.798Z,25.15
2023-05-11T13:22:06.415Z,23.42
2023-05-11T13:24:39.564Z,20.42
2023-05-11T13:27:18.138Z,24.17
2023-05-11T13:29:47.392Z,22.48
2023-05-11T13:32:16.860Z,22.38
2023-05-11T13:34:43.937Z,21.95
2023-05-11T13:37:13.733Z,23.55
2023-05-11T13:39:40.677Z,22.52
2023-05-11T13:42:10.651Z,22.50
2023-05-11T13:44:40.879Z,23.23
2023-05-11T13:47:16.959Z,21.77
2023-05-11T13:50:17.564Z,22.75
2023-05-11T13:52:44.510Z,25.55
2023-05-11T13:55:14.294Z,23.90
2023-05-11T13:57:41.136Z,22.38
2023-05-11T14:00:17.965Z,23.38
2023-05-11T14:06:01.557Z,22.17
2023-05-11T14:08:31.402Z,21.75
2023-05-11T14:10:58.446Z,22.65
2023-05-11T14:13:26.004Z,22.85
2023-05-11T14:15:53.997Z,23.95
2023-05-11T14:18:40.353Z,23.83
2023-05-11T14:21:09.835Z,24.92
2023-05-11T14:23:44.971Z,25.98
2023-05-11T14:26:17.345Z,24.80
2023-05-11T14:28:44.241Z,24.27
2023-05-11T14:31:30.451Z,23.98
2023-05-11T14:34:14.208Z,23.00
2023-05-11T14:36:41.497Z,24.67
2023-05-11T14:39:08.302Z,22.98
2023-05-11T14:41:48.941Z,24.13
2023-05-11T14:44:19.159Z,22.70
2023-05-11T14:46:46.239Z,21.92
2023-05-11T14:49:18.738Z,24.35
2023-05-11T14:51:51.270Z,25.17
2023-05-11T14:54:24.892Z,25.55
2023-05-11T14:56:57.596Z,26.83
2023-05-11T14:59:30.677Z,24.65
2023-05-11T15:02:00.872Z,24.67
2023-05-11T15:04:28.159Z,21.55
2023-05-11T15:06:58.354Z,24.60
2023-05-11T15:10:13.567Z,20.60
2023-05-11T15:12:52.905Z,21.15
2023-05-11T15:15:33.520Z,20.73
2023-05-11T15:18:06.493Z,20.95
2023-05-11T15:20:38.607Z,20.65
2023-05-11T15:23:17.196Z,18.50
2023-05-11T15:25:49.252Z,21.13
2023-05-11T15:28:28.849Z,20.27
2023-05-11T15:31:24.326Z,21.50
2023-05-11T15:33:51.338Z,18.75
2023-05-11T15:36:18.395Z,18.83
2023-05-11T15:38:51.611Z,19.40
2023-05-11T15:41:18.457Z,17.40
2023-05-11T15:43:45.163Z,17.75
2023-05-11T15:46:12.401Z,19.58
2023-05-11T15:48:42.421Z,19.05
2023-05-11T15:51:09.646Z,18.40
2023-05-11T15:53:48.770Z,21.05
2023-05-11T15:56:32.832Z,20.00
2023-05-11T16:01:29.132Z,19.50
2023-05-11T16:03:59.748Z,22.20
2023-05-11T16:09:27.187Z,22.02
2023-05-11T16:11:59.449Z,22.75
2023-05-11T16:14:26.903Z,23.15
2023-05-11T16:16:57.195Z,22.23
2023-05-11T16:19:33.283Z,23.88
2023-05-11T16:22:00.152Z,23.50
2023-05-11T16:24:31.642Z,23.98
2023-05-11T16:27:07.682Z,25.13
2023-05-11T16:29:34.798Z,23.30
2023-05-11T16:32:01.912Z,25.15
2023-05-11T16:34:28.991Z,23.77
2023-05-11T16:37:01.577Z,25.45
2023-05-11T16:39:28.504Z,22.95
2023-05-11T16:42:07.123Z,23.77
2023-05-11T16:44:42.756Z,23.30
2023-05-11T16:47:11.531Z,27.33
2023-05-11T16:49:41.450Z,25.83
2023-05-11T16:52:08.225Z,26.00
2023-05-11T16:54:35.120Z,24.85
2023-05-11T16:57:07.971Z,22.67
2023-05-11T16:59:42.475Z,21.67
2023-05-11T17:02:10.520Z,22.85
2023-05-11T17:04:40.925Z,23.90
2023-05-11T17:07:11.097Z,24.40
2023-05-11T17:09:40.446Z,21.42
2023-05-11T17:12:17.294Z,20.17
2023-05-11T17:14:44.389Z,21.10
2023-05-11T17:17:11.615Z,23.67
2023-05-11T17:19:41.125Z,22.02
2023-05-11T17:22:13.475Z,20.88
2023-05-11T17:24:48.855Z,21.08
2023-05-11T17:27:16.311Z,22.25
2023-05-11T17:29:59.180Z,21.67
2023-05-11T17:32:26.924Z,20.63
2023-05-11T17:34:57.520Z,23.23
2023-05-11T17:37:31.746Z,22.48
2023-05-11T17:40:18.197Z,22.08
2023-05-11T17:43:08.129Z,21.75
2023-05-11T17:45:41.058Z,21.27
2023-05-11T17:51:18.510Z,20.70
2023-05-11T17:54:32.057Z,18.85
2023-05-11T17:57:11.575Z,18.13
2023-05-11T17:59:50.731Z,17.45
2023-05-11T18:02:18.980Z,18.98
2023-05-11T18:04:49.314Z,17.00
2023-05-11T18:07:22.525Z,17.85
2023-05-11T18:09:49.399Z,19.50
2023-05-11T18:12:19.625Z,18.45
2023-05-11T18:15:18.808Z,16.45
2023-05-11T18:17:49.448Z,16.58
2023-05-11T18:20:18.201Z,16.48
2023-05-11T18:22:47.848Z,17.30
2023-05-11T18:25:23.416Z,16.33
2023-05-11T18:27:51.478Z,15.88
2023-05-11T18:30:21.387Z,15.25
2023-05-11T18:32:48.480Z,15.98
2023-05-11T18:35:19.054Z,14.43
2023-05-11T18:37:46.832Z,15.15
2023-05-11T18:40:20.281Z,14.57
2023-05-11T18:42:47.400Z,13.98
2023-05-11T18:45:19.669Z,16.48
2023-05-11T18:47:47.680Z,13.98
2023-05-11T18:50:17.211Z,14.15
2023-05-11T18:52:47.618Z,21.13
2023-05-11T18:55:18.454Z,22.98
2023-05-11T18:57:48.409Z,15.25
2023-05-11T19:00:16.313Z,16.10
2023-05-11T19:02:54.924Z,11.57
2023-05-11T19:05:33.234Z,13.55
2023-05-11T19:08:00.456Z,13.63
2023-05-11T19:10:29.075Z,12.73
2023-05-11T19:12:56.057Z,11.02
2023-05-11T19:15:22.862Z,9.20
2023-05-11T19:17:49.583Z,11.55
2023-05-11T19:20:17.178Z,14.82
2023-05-11T19:22:47.170Z,23.27
2023-05-11T19:25:18.636Z,38.78
2023-05-11T19:27:48.584Z,33.63
2023-05-11T19:30:19.292Z,26.38
2023-05-11T19:32:57.195Z,20.60
2023-05-11T19:35:24.862Z,17.25
2023-05-11T19:37:51.540Z,10.77
2023-05-11T19:43:08.381Z,11.48
2023-05-11T21:17:16.697Z,5.90
2023-05-11T21:31:10.454Z,6.95
2023-05-11T21:33:40.037Z,6.78
2023-05-11T21:36:09.635Z,6.90
2023-05-11T21:38:36.593Z,7.47
2023-05-11T21:41:06.474Z,7.70
2023-05-11T21:43:33.563Z,7.07
2023-05-11T21:46:03.072Z,7.00
2023-05-11T21:48:32.367Z,8.25
2023-05-11T21:51:01.756Z,7.88
2023-05-11T21:53:30.625Z,8.13
2023-05-11T21:56:20.660Z,8.10
2023-05-11T21:58:51.272Z,6.32
2023-05-11T22:01:23.958Z,8.00
2023-05-11T22:03:55.713Z,6.60
2023-05-11T22:06:22.876Z,7.05
2023-05-11T22:09:00.863Z,7.28
2023-05-11T22:11:33.783Z,6.82
2023-05-11T22:14:03.136Z,6.43
2023-05-11T22:16:37.729Z,5.43
2023-05-11T22:19:11.181Z,6.13
2023-05-11T22:21:39.872Z,7.43
2023-05-11T22:24:09.040Z,7.32
2023-05-11T22:26:38.746Z,6.13
2023-05-11T22:29:15.514Z,6.80
2023-05-11T22:31:46.176Z,7.93
2023-05-11T22:34:13.440Z,5.57
2023-05-11T22:37:10.248Z,5.78
2023-05-11T22:39:37.154Z,5.10
2023-05-11T22:42:09.469Z,5.90
2023-05-11T22:44:36.762Z,5.55
2023-05-11T22:47:04.961Z,6.50
2023-05-11T22:49:32.057Z,6.40
2023-05-11T22:51:59.637Z,6.05
2023-05-11T22:54:29.395Z,6.80
2023-05-11T22:57:03.543Z,5.30
2023-05-11T23:02:13.940Z,6.57
2023-05-11T23:04:44.505Z,8.80
2023-05-11T23:07:12.830Z,6.55
2023-05-11T23:09:42.338Z,7.85
2023-05-11T23:12:11.649Z,5.75
2023-05-11T23:14:41.605Z,6.03
2023-05-11T23:17:13.177Z,5.45
2023-05-11T23:19:54.912Z,9.05
2023-05-11T23:22:28.037Z,6.20
2023-05-11T23:25:01.403Z,5.18
2023-05-11T23:27:28.620Z,5.47
2023-05-11T23:29:58.095Z,5.93
2023-05-11T23:32:25.074Z,6.55
2023-05-11T23:34:54.312Z,6.32
2023-05-11T23:37:22.315Z,6.18
2023-05-11T23:39:55.218Z,6.38
2023-05-11T23:42:22.551Z,6.38
2023-05-11T23:44:54.932Z,6.07
2023-05-11T23:47:24.773Z,7.13
2023-05-11T23:50:14.015Z,6.60
2023-05-11T23:52:46.464Z,6.32
2023-05-11T23:55:19.297Z,7.38
2023-05-11T23:57:46.612Z,7.55
